createdAt,value
2022-12-03T00:00:48.953Z,76.34
2022-12-03T00:03:18.100Z,75.71
2022-12-03T00:05:49.086Z,76.15
2022-12-03T00:08:18.401Z,75.93
2022-12-03T00:10:47.779Z,75.59
2022-12-03T00:13:16.258Z,75.75
2022-12-03T00:15:46.160Z,75.68
2022-12-03T00:18:15.179Z,75.59
2022-12-03T00:20:46.251Z,75.98
2022-12-03T00:23:15.217Z,75.72
2022-12-03T00:25:44.169Z,75.91
2022-12-03T00:28:12.826Z,75.76
2022-12-03T00:30:41.688Z,75.63
2022-12-03T00:33:10.526Z,75.40
2022-12-03T00:35:39.447Z,75.90
2022-12-03T00:38:08.338Z,76.20
2022-12-03T00:40:37.192Z,75.98
2022-12-03T00:43:05.821Z,75.80
2022-12-03T00:45:34.668Z,75.46
2022-12-03T00:48:03.399Z,75.46
2022-12-03T00:50:32.332Z,75.06
2022-12-03T00:53:00.868Z,76.07
2022-12-03T00:55:29.924Z,75.17
2022-12-03T00:57:58.793Z,75.32
2022-12-03T01:00:27.888Z,75.35
2022-12-03T01:02:56.709Z,75.43
2022-12-03T01:05:25.864Z,75.58
2022-12-03T01:07:54.762Z,75.51
2022-12-03T01:10:23.890Z,75.62
2022-12-03T01:12:52.759Z,75.80
2022-12-03T01:15:21.489Z,75.70
2022-12-03T01:17:50.595Z,75.75
2022-12-03T01:20:19.815Z,75.19
2022-12-03T01:22:48.546Z,75.81
2022-12-03T01:25:17.631Z,76.37
2022-12-03T01:27:46.497Z,75.65
2022-12-03T01:30:15.618Z,75.88
2022-12-03T01:32:44.777Z,75.41
2022-12-03T01:35:13.775Z,75.57
2022-12-03T01:37:42.751Z,75.86
2022-12-03T01:40:16.555Z,76.08
2022-12-03T01:42:45.240Z,75.74
2022-12-03T01:45:23.028Z,75.50
2022-12-03T01:47:52.217Z,76.40
2022-12-03T01:50:32.904Z,76.29
2022-12-03T01:53:06.138Z,76.20
2022-12-03T01:55:35.121Z,75.93
2022-12-03T01:58:04.796Z,76.13
2022-12-03T02:00:33.783Z,75.54
2022-12-03T02:03:06.796Z,75.98
2022-12-03T02:05:35.733Z,76.18
2022-12-03T02:08:34.882Z,76.11
2022-12-03T02:11:28.239Z,76.76
2022-12-03T02:14:02.597Z,76.46
2022-12-03T02:16:31.900Z,76.02
2022-12-03T02:19:01.011Z,76.63
2022-12-03T02:21:38.301Z,76.04
2022-12-03T02:24:32.115Z,76.50
2022-12-03T02:27:00.992Z,76.12
2022-12-03T02:29:30.213Z,76.23
2022-12-03T02:31:59.431Z,75.45
2022-12-03T02:34:41.817Z,76.51
2022-12-03T02:37:16.579Z,76.17
2022-12-03T02:39:51.115Z,76.31
2022-12-03T02:42:36.733Z,75.52
2022-12-03T02:45:31.061Z,75.65
2022-12-03T02:48:01.983Z,75.84
2022-12-03T02:50:37.946Z,75.81
2022-12-03T02:53:20.375Z,75.68
2022-12-03T02:55:51.780Z,75.58
2022-12-03T02:58:21.592Z,76.11
2022-12-03T03:00:53.239Z,75.46
2022-12-03T03:03:25.514Z,76.07
2022-12-03T03:05:57.405Z,75.39
2022-12-03T03:08:27.515Z,75.39
2022-12-03T03:10:58.234Z,75.86
2022-12-03T03:13:27.152Z,75.99
2022-12-03T03:15:57.104Z,75.45
2022-12-03T03:18:26.144Z,75.02
2022-12-03T03:20:55.222Z,75.69
2022-12-03T03:23:26.145Z,75.76
2022-12-03T03:26:09.772Z,75.23
2022-12-03T03:28:41.511Z,75.98
2022-12-03T03:31:13.416Z,75.32
2022-12-03T03:33:44.426Z,75.62
2022-12-03T03:36:14.378Z,75.23
2022-12-03T03:38:43.490Z,75.91
2022-12-03T03:41:13.766Z,75.80
2022-12-03T03:43:44.528Z,75.57
2022-12-03T03:46:14.530Z,75.64
2022-12-03T03:48:44.810Z,75.55
2022-12-03T03:51:14.562Z,75.78
2022-12-03T03:53:48.647Z,74.99
2022-12-03T03:56:20.388Z,75.30
2022-12-03T03:58:49.074Z,75.25
2022-12-03T04:01:19.125Z,75.27
2022-12-03T04:03:48.051Z,75.49
2022-12-03T04:06:17.274Z,75.42
2022-12-03T04:08:46.053Z,74.94
2022-12-03T04:11:33.441Z,75.15
2022-12-03T04:14:04.614Z,74.90
2022-12-03T04:16:33.589Z,75.11
2022-12-03T04:19:02.317Z,75.61
2022-12-03T04:21:49.188Z,74.81
2022-12-03T04:24:17.935Z,75.67
2022-12-03T04:27:05.135Z,75.00
2022-12-03T04:29:33.977Z,75.09
2022-12-03T04:32:21.057Z,75.25
2022-12-03T04:35:07.932Z,75.38
2022-12-03T04:37:36.539Z,74.82
2022-12-03T04:40:25.737Z,75.62
2022-12-03T04:42:54.575Z,75.52
2022-12-03T04:45:23.274Z,74.56
2022-12-03T04:47:54.518Z,74.90
2022-12-03T04:50:25.527Z,75.42
2022-12-03T04:52:54.358Z,75.01
2022-12-03T04:55:23.738Z,75.15
2022-12-03T04:57:52.399Z,74.83
2022-12-03T05:00:21.421Z,75.04
2022-12-03T05:02:50.241Z,75.13
2022-12-03T05:05:19.448Z,74.84
2022-12-03T05:07:48.431Z,75.35
2022-12-03T05:10:17.374Z,74.79
2022-12-03T05:12:46.367Z,74.56
2022-12-03T05:15:15.416Z,74.52
2022-12-03T05:17:44.187Z,75.03
2022-12-03T05:20:31.983Z,74.31
2022-12-03T05:23:00.751Z,74.58
2022-12-03T05:25:29.665Z,75.11
2022-12-03T05:27:58.405Z,75.04
2022-12-03T05:30:27.138Z,74.56
2022-12-03T05:32:55.923Z,74.45
2022-12-03T05:35:24.946Z,74.87
2022-12-03T05:37:53.647Z,74.84
2022-12-03T05:40:22.811Z,75.03
2022-12-03T05:43:02.550Z,75.10
2022-12-03T05:45:40.813Z,75.01
2022-12-03T05:48:12.986Z,74.95
2022-12-03T05:50:45.106Z,75.20
2022-12-03T05:53:18.310Z,75.16
2022-12-03T05:55:47.651Z,74.86
2022-12-03T05:58:16.623Z,74.30
2022-12-03T06:00:45.488Z,74.82
2022-12-03T06:03:14.675Z,74.04
2022-12-03T06:05:43.721Z,74.01
2022-12-03T06:08:12.990Z,74.07
2022-12-03T06:10:42.114Z,74.00
2022-12-03T06:13:11.069Z,73.78
2022-12-03T06:15:43.776Z,74.09
2022-12-03T06:18:13.297Z,74.50
2022-12-03T06:20:42.353Z,74.44
2022-12-03T06:23:11.224Z,74.21
2022-12-03T06:25:40.342Z,74.17
2022-12-03T06:28:09.836Z,74.31
2022-12-03T06:30:38.981Z,74.34
2022-12-03T06:33:08.171Z,74.08
2022-12-03T06:35:37.558Z,74.05
2022-12-03T06:38:06.739Z,73.78
2022-12-03T06:40:35.550Z,73.88
2022-12-03T06:43:04.679Z,73.83
2022-12-03T06:45:33.541Z,73.74
2022-12-03T06:48:02.687Z,73.66
2022-12-03T06:50:31.745Z,73.83
2022-12-03T06:53:00.506Z,74.16
2022-12-03T06:55:29.143Z,73.92
2022-12-03T06:57:57.818Z,73.68
2022-12-03T07:00:26.526Z,73.71
2022-12-03T07:02:55.335Z,73.92
2022-12-03T07:05:23.986Z,73.67
2022-12-03T07:07:56.267Z,73.49
2022-12-03T07:10:25.031Z,73.88
2022-12-03T07:12:54.980Z,74.16
2022-12-03T07:15:23.846Z,73.89
2022-12-03T07:17:52.562Z,74.00
2022-12-03T07:20:21.398Z,74.24
2022-12-03T07:22:50.021Z,73.22
2022-12-03T07:25:23.081Z,73.93
2022-12-03T07:27:52.604Z,73.44
2022-12-03T07:30:22.180Z,73.89
2022-12-03T07:32:51.114Z,73.76
2022-12-03T07:35:19.707Z,73.69
2022-12-03T07:37:49.068Z,73.80
2022-12-03T07:40:17.866Z,73.78
2022-12-03T07:42:46.634Z,74.22
2022-12-03T07:45:15.718Z,74.02
2022-12-03T07:47:44.538Z,74.43
2022-12-03T07:50:13.618Z,73.77
2022-12-03T07:52:42.382Z,73.88
2022-12-03T07:55:14.413Z,73.22
2022-12-03T07:57:44.480Z,73.90
2022-12-03T08:00:15.204Z,73.35
2022-12-03T08:02:44.725Z,74.12
2022-12-03T08:05:13.953Z,73.76
2022-12-03T08:07:42.641Z,74.03
2022-12-03T08:10:11.959Z,74.39
2022-12-03T08:12:41.234Z,73.63
2022-12-03T08:15:15.204Z,74.43
2022-12-03T08:17:46.138Z,73.01
2022-12-03T08:20:18.109Z,73.85
2022-12-03T08:22:48.720Z,73.92
2022-12-03T08:25:29.967Z,73.50
2022-12-03T08:28:17.433Z,73.54
2022-12-03T08:30:59.974Z,74.33
2022-12-03T08:33:36.996Z,74.12
2022-12-03T08:36:26.846Z,74.03
2022-12-03T08:39:06.503Z,73.72
2022-12-03T08:41:55.961Z,74.03
2022-12-03T08:44:31.227Z,73.29
2022-12-03T08:47:20.375Z,74.06
2022-12-03T08:50:03.936Z,74.17
2022-12-03T08:52:35.421Z,73.89
2022-12-03T08:55:30.604Z,73.11
2022-12-03T08:58:00.311Z,73.32
2022-12-03T09:00:30.023Z,73.86
2022-12-03T09:03:01.956Z,73.75
2022-12-03T09:05:36.186Z,72.77
2022-12-03T09:08:05.405Z,72.48
2022-12-03T09:10:34.460Z,73.58
2022-12-03T09:13:03.887Z,73.45
2022-12-03T09:15:37.470Z,73.62
2022-12-03T09:18:07.559Z,72.82
2022-12-03T09:20:37.473Z,72.02
2022-12-03T09:23:07.133Z,71.91
2022-12-03T09:25:36.661Z,72.67
2022-12-03T09:28:06.358Z,72.92
2022-12-03T09:30:35.194Z,72.64
2022-12-03T09:33:04.680Z,71.95
2022-12-03T09:35:34.758Z,71.92
2022-12-03T09:38:03.929Z,72.79
2022-12-03T09:40:33.382Z,72.27
2022-12-03T09:43:02.724Z,71.40
2022-12-03T09:45:32.481Z,71.88
2022-12-03T09:48:04.486Z,72.13
2022-12-03T09:50:33.778Z,71.79
2022-12-03T09:53:04.822Z,71.90
2022-12-03T09:55:34.427Z,71.41
2022-12-03T09:58:03.857Z,71.83
2022-12-03T10:00:32.937Z,71.55
2022-12-03T10:03:05.828Z,71.73
2022-12-03T10:05:35.598Z,72.07
2022-12-03T10:08:13.913Z,72.38
2022-12-03T10:10:43.479Z,71.89
2022-12-03T10:13:25.793Z,71.26
2022-12-03T10:15:59.075Z,71.37
2022-12-03T10:18:41.271Z,71.67
2022-12-03T10:21:23.856Z,71.07
2022-12-03T10:24:18.697Z,71.84
2022-12-03T10:26:51.261Z,71.93
2022-12-03T10:29:33.150Z,71.75
2022-12-03T10:32:08.837Z,71.41
2022-12-03T10:34:40.616Z,71.65
2022-12-03T10:37:23.726Z,72.05
2022-12-03T10:40:02.623Z,72.19
2022-12-03T10:42:34.236Z,72.52
2022-12-03T11:13:30.763Z,72.68
2022-12-03T11:16:00.847Z,72.78
2022-12-03T11:18:38.903Z,73.27
2022-12-03T11:21:13.999Z,73.02
2022-12-03T11:23:45.763Z,72.91
2022-12-03T11:26:27.889Z,73.02
2022-12-03T11:28:56.785Z,73.06
2022-12-03T11:31:39.680Z,73.20
2022-12-03T11:34:21.107Z,73.31
2022-12-03T11:37:12.764Z,73.52
2022-12-03T11:39:53.522Z,73.25
2022-12-03T11:42:28.578Z,73.47
2022-12-03T11:45:29.207Z,73.46
2022-12-03T11:48:01.125Z,74.01
2022-12-03T11:50:41.436Z,73.55
2022-12-03T11:53:18.067Z,73.64
2022-12-03T11:55:53.099Z,73.59
2022-12-03T11:58:30.471Z,74.09
2022-12-03T12:01:01.868Z,73.77
2022-12-03T12:03:48.891Z,73.81
2022-12-03T12:06:21.336Z,73.77
2022-12-03T12:12:44.408Z,74.00
2022-12-03T12:15:45.136Z,73.41
2022-12-03T12:18:37.508Z,73.86
2022-12-03T12:21:43.361Z,74.11
2022-12-03T12:24:48.692Z,74.10
2022-12-03T12:27:18.919Z,74.10
2022-12-03T12:29:58.804Z,74.11
2022-12-03T12:32:39.559Z,73.92
2022-12-03T12:35:31.615Z,74.13
2022-12-03T12:45:57.451Z,74.04
2022-12-03T12:48:31.151Z,74.01
2022-12-03T12:51:14.799Z,74.06
2022-12-03T13:11:35.366Z,74.43
2022-12-03T13:14:16.925Z,74.12
2022-12-03T13:16:47.175Z,74.08
2022-12-03T13:19:31.215Z,74.04
2022-12-03T13:22:16.034Z,74.35
2022-12-03T13:24:48.588Z,74.09
2022-12-03T13:27:20.585Z,74.45
2022-12-03T13:29:54.396Z,74.20
2022-12-03T13:32:32.006Z,74.13
2022-12-03T13:35:17.093Z,74.64
2022-12-03T13:37:46.593Z,74.46
2022-12-03T13:40:28.891Z,74.51
2022-12-03T13:43:00.960Z,74.68
2022-12-03T13:45:39.885Z,74.34
2022-12-03T13:48:45.933Z,74.66
2022-12-03T13:51:28.194Z,74.57
2022-12-03T13:54:00.032Z,73.85
2022-12-03T13:56:31.572Z,74.85
2022-12-03T13:59:02.523Z,74.69
2022-12-03T14:01:31.642Z,75.11
2022-12-03T14:04:01.178Z,74.66
2022-12-03T14:06:30.118Z,74.09
2022-12-03T14:09:02.723Z,74.62
2022-12-03T14:11:50.434Z,74.63
2022-12-03T14:14:19.214Z,74.46
2022-12-03T14:16:48.506Z,74.51
2022-12-03T14:19:17.502Z,74.91
2022-12-03T14:21:46.719Z,74.63
2022-12-03T14:24:15.628Z,74.72
2022-12-03T14:26:44.657Z,75.11
2022-12-03T14:29:13.610Z,75.16
2022-12-03T14:31:42.680Z,75.15
2022-12-03T14:34:12.282Z,74.34
2022-12-03T14:36:41.698Z,74.64
2022-12-03T14:39:10.530Z,74.91
2022-12-03T14:42:18.651Z,75.04
2022-12-03T14:44:50.769Z,74.80
2022-12-03T14:47:25.579Z,75.05
2022-12-03T14:49:55.520Z,75.26
2022-12-03T14:52:24.864Z,74.85
2022-12-03T14:54:54.375Z,74.77
2022-12-03T14:57:24.384Z,74.68
2022-12-03T14:59:54.319Z,74.82
2022-12-03T15:02:25.744Z,74.67
2022-12-03T15:04:54.866Z,74.52
2022-12-03T15:07:25.531Z,75.18
2022-12-03T15:09:55.691Z,75.28
2022-12-03T15:12:24.889Z,75.09
2022-12-03T15:14:53.990Z,74.30
2022-12-03T15:17:31.069Z,74.61
2022-12-03T15:24:08.937Z,75.17
2022-12-03T15:26:38.389Z,74.31
2022-12-03T15:29:07.390Z,75.03
2022-12-03T15:31:36.286Z,74.70
2022-12-03T15:34:08.952Z,74.83
2022-12-03T15:36:37.773Z,74.37
2022-12-03T15:39:06.645Z,73.98
2022-12-03T15:41:35.204Z,74.30
2022-12-03T15:44:03.704Z,74.21
2022-12-03T15:46:34.635Z,73.94
2022-12-03T15:49:03.482Z,74.53
2022-12-03T15:51:32.043Z,74.42
2022-12-03T15:54:00.677Z,74.46
2022-12-03T15:56:29.097Z,74.20
2022-12-03T15:58:57.675Z,74.95
2022-12-03T16:01:26.399Z,74.26
2022-12-03T16:03:55.307Z,73.98
2022-12-03T16:06:24.173Z,73.89
2022-12-03T16:08:52.735Z,74.30
2022-12-03T16:11:21.614Z,74.50
2022-12-03T16:13:50.868Z,73.73
2022-12-03T16:16:19.725Z,74.11
2022-12-03T16:18:48.963Z,74.75
2022-12-03T16:21:23.386Z,74.22
2022-12-03T16:23:55.302Z,74.03
2022-12-03T16:26:25.002Z,74.11
2022-12-03T16:28:54.473Z,74.79
2022-12-03T16:31:23.681Z,74.70
2022-12-03T16:33:52.446Z,73.92
2022-12-03T16:36:24.144Z,73.46
2022-12-03T16:38:52.684Z,73.73
2022-12-03T16:41:23.177Z,73.84
2022-12-03T16:43:52.106Z,74.53
2022-12-03T16:46:22.097Z,73.96
2022-12-03T16:48:51.332Z,74.53
2022-12-03T16:51:20.856Z,73.79
2022-12-03T16:53:50.022Z,73.94
2022-12-03T16:56:18.832Z,74.00
2022-12-03T16:58:47.520Z,74.44
2022-12-03T17:01:17.124Z,74.00
2022-12-03T17:03:45.794Z,74.46
2022-12-03T17:06:14.559Z,73.85
2022-12-03T17:08:48.810Z,74.42
2022-12-03T17:11:19.101Z,74.08
2022-12-03T17:13:47.958Z,74.28
2022-12-03T17:16:16.907Z,74.16
2022-12-03T17:18:45.818Z,74.16
2022-12-03T17:21:14.654Z,73.61
2022-12-03T17:23:43.912Z,73.92
2022-12-03T17:26:12.601Z,73.84
2022-12-03T17:28:41.242Z,73.94
2022-12-03T17:31:10.389Z,73.29
2022-12-03T17:33:40.106Z,74.07
2022-12-03T17:36:09.499Z,73.94
2022-12-03T17:38:39.442Z,73.45
2022-12-03T17:41:09.619Z,73.19
2022-12-03T17:43:38.659Z,73.90
2022-12-03T17:46:08.273Z,73.17
2022-12-03T17:48:37.171Z,73.52
2022-12-03T17:51:07.167Z,73.44
2022-12-03T17:53:36.766Z,73.78
2022-12-03T17:56:05.610Z,73.69
2022-12-03T17:58:34.333Z,73.65
2022-12-03T18:01:03.481Z,73.81
2022-12-03T18:03:32.545Z,73.43
2022-12-03T18:06:03.547Z,73.69
2022-12-03T18:08:32.441Z,73.86
2022-12-03T18:11:01.617Z,73.41
2022-12-03T18:13:30.441Z,73.85
2022-12-03T18:15:59.285Z,73.79
2022-12-03T18:18:28.918Z,73.25
2022-12-03T18:21:02.763Z,73.22
2022-12-03T18:23:32.019Z,73.02
2022-12-03T18:26:02.784Z,73.01
2022-12-03T18:28:34.657Z,73.60
2022-12-03T18:31:03.539Z,73.24
2022-12-03T18:33:32.395Z,73.19
2022-12-03T18:36:01.414Z,73.67
2022-12-03T18:38:33.567Z,73.06
2022-12-03T18:41:02.674Z,73.81
2022-12-03T18:43:31.766Z,73.39
2022-12-03T18:46:00.632Z,73.68
2022-12-03T18:48:29.471Z,73.80
2022-12-03T18:50:58.153Z,73.58
2022-12-03T18:53:27.012Z,73.66
2022-12-03T18:55:55.632Z,73.34
2022-12-03T18:58:24.922Z,73.83
2022-12-03T19:00:53.837Z,73.39
2022-12-03T19:03:22.792Z,73.65
2022-12-03T19:05:51.715Z,73.51
2022-12-03T19:08:20.806Z,73.41
2022-12-03T19:10:58.296Z,73.65
2022-12-03T19:13:28.843Z,73.75
2022-12-03T19:15:57.782Z,73.49
2022-12-03T19:18:26.400Z,73.31
2022-12-03T19:20:55.014Z,73.59
2022-12-03T19:23:23.871Z,73.32
2022-12-03T19:25:59.830Z,73.36
2022-12-03T19:28:30.125Z,72.87
2022-12-03T19:31:01.635Z,73.03
2022-12-03T19:33:31.151Z,73.28
2022-12-03T19:36:00.657Z,73.10
2022-12-03T19:38:30.894Z,73.34
2022-12-03T19:41:09.945Z,73.05
2022-12-03T19:43:39.563Z,73.46
2022-12-03T19:46:10.685Z,73.00
2022-12-03T19:48:41.469Z,73.29
2022-12-03T19:51:32.941Z,73.11
2022-12-03T19:54:00.977Z,73.36
2022-12-03T19:56:31.117Z,73.48
2022-12-03T19:59:00.299Z,72.75
2022-12-03T20:01:32.032Z,73.23
2022-12-03T20:04:03.299Z,73.41
2022-12-03T20:06:34.715Z,73.42
2022-12-03T20:09:08.472Z,73.28
2022-12-03T20:11:37.518Z,73.27
2022-12-03T20:14:09.635Z,73.55
2022-12-03T20:16:38.514Z,73.48
2022-12-03T20:19:11.348Z,73.30
2022-12-03T20:21:43.937Z,73.04
2022-12-03T20:24:17.944Z,73.31
2022-12-03T20:26:49.241Z,73.13
2022-12-03T20:29:18.691Z,73.25
2022-12-03T20:31:47.487Z,72.96
2022-12-03T20:34:16.081Z,72.90
2022-12-03T20:36:46.440Z,73.02
2022-12-03T20:39:15.192Z,73.04
2022-12-03T20:41:43.937Z,73.00
2022-12-03T20:44:14.716Z,72.88
2022-12-03T20:46:43.512Z,72.89
2022-12-03T20:49:12.425Z,73.27
2022-12-03T20:51:43.180Z,72.76
2022-12-03T20:54:11.879Z,72.49
2022-12-03T20:56:40.807Z,73.22
2022-12-03T20:59:13.206Z,73.29
2022-12-03T21:01:42.815Z,72.98
2022-12-03T21:04:18.910Z,73.24
2022-12-03T21:06:47.660Z,72.81
2022-12-03T21:09:16.275Z,73.30
2022-12-03T21:11:45.024Z,72.87
2022-12-03T21:14:13.841Z,73.34
2022-12-03T21:17:07.413Z,72.98
2022-12-03T21:19:32.379Z,72.69
2022-12-03T21:22:01.296Z,72.95
2022-12-03T21:24:30.820Z,72.79
2022-12-03T21:27:00.017Z,73.06
2022-12-03T21:29:28.802Z,72.70
2022-12-03T21:31:57.486Z,72.75
2022-12-03T21:34:28.066Z,73.11
2022-12-03T21:36:58.963Z,72.74
2022-12-03T21:39:27.638Z,72.92
2022-12-03T21:42:25.910Z,72.55
2022-12-03T21:44:45.201Z,72.96
2022-12-03T21:47:14.600Z,72.57
2022-12-03T21:49:43.559Z,72.51
2022-12-03T21:52:13.811Z,72.52
2022-12-03T21:54:42.758Z,72.57
2022-12-03T21:57:11.808Z,72.79
2022-12-03T21:59:40.415Z,72.69
2022-12-03T22:02:10.762Z,72.52
2022-12-03T22:04:40.518Z,72.74
2022-12-03T22:07:09.239Z,72.76
2022-12-03T22:09:37.874Z,72.92
2022-12-03T22:12:07.222Z,72.67
2022-12-03T22:14:35.958Z,72.67
2022-12-03T22:17:04.766Z,72.36
2022-12-03T22:19:33.438Z,72.60
2022-12-03T22:22:02.518Z,72.31
2022-12-03T22:24:31.486Z,72.25
2022-12-03T22:27:00.295Z,72.25
2022-12-03T22:29:29.029Z,72.49
2022-12-03T22:31:58.080Z,72.44
2022-12-03T22:34:26.901Z,72.65
2022-12-03T22:36:56.727Z,72.57
2022-12-03T22:39:25.571Z,72.73
2022-12-03T22:41:54.249Z,72.82
2022-12-03T22:44:23.106Z,72.59
2022-12-03T22:46:52.071Z,72.80
2022-12-03T22:49:20.767Z,72.70
2022-12-03T22:51:49.646Z,72.42
2022-12-03T22:54:23.782Z,72.68
2022-12-03T22:56:53.000Z,72.75
2022-12-03T22:59:21.681Z,72.77
2022-12-03T23:01:50.402Z,72.72
2022-12-03T23:04:19.204Z,72.77
2022-12-03T23:06:47.831Z,72.53
2022-12-03T23:09:16.678Z,72.05
2022-12-03T23:11:46.055Z,72.26
2022-12-03T23:14:15.103Z,72.18
2022-12-03T23:16:43.681Z,72.12
2022-12-03T23:19:12.886Z,72.13
2022-12-03T23:21:41.651Z,72.36
2022-12-03T23:24:11.807Z,72.44
2022-12-03T23:26:40.899Z,72.30
2022-12-03T23:29:15.079Z,72.19
2022-12-03T23:31:44.051Z,72.28
2022-12-03T23:34:12.817Z,72.21
2022-12-03T23:36:42.440Z,72.57
2022-12-03T23:39:11.464Z,72.52
2022-12-03T23:41:40.195Z,72.43
2022-12-03T23:44:10.911Z,72.50
2022-12-03T23:46:41.016Z,71.86
2022-12-03T23:49:09.789Z,72.37
2022-12-03T23:51:39.219Z,72.08
2022-12-03T23:54:08.019Z,72.25
2022-12-03T23:56:37.034Z,72.24
2022-12-03T23:59:06.016Z,72.11
